createdAt,value
2019-02-09T00:13:21.225Z,-0.05
2019-02-09T00:28:23.952Z,-0.10
2019-02-09T00:43:28.080Z,-0.28
2019-02-09T00:58:30.664Z,-0.67
2019-02-09T01:13:33.268Z,-0.75
2019-02-09T01:28:35.929Z,-0.92
2019-02-09T01:43:39.309Z,-0.77
2019-02-09T01:58:41.907Z,-0.91
2019-02-09T02:13:44.466Z,-1.00
2019-02-09T02:28:48.692Z,-1.02
2019-02-09T02:43:51.250Z,-1.01
2019-02-09T02:58:53.830Z,-1.18
2019-02-09T03:13:57.983Z,-1.24
2019-02-09T03:29:02.798Z,-1.25
2019-02-09T03:44:05.630Z,-1.35
2019-02-09T03:59:08.219Z,-1.20
2019-02-09T04:14:10.772Z,-1.16
2019-02-09T04:29:15.026Z,-1.18
2019-02-09T04:44:18.318Z,-1.12
2019-02-09T04:59:20.877Z,-1.00
2019-02-09T05:14:23.437Z,-0.91
2019-02-09T05:29:28.960Z,-0.84
2019-02-09T05:44:31.759Z,-0.83
2019-02-09T05:59:34.333Z,-0.65
2019-02-09T06:14:36.920Z,-0.43
2019-02-09T06:29:41.220Z,0.11
2019-02-09T06:44:44.932Z,0.88
2019-02-09T06:59:48.454Z,1.56
2019-02-09T07:14:51.019Z,2.02
2019-02-09T07:29:53.741Z,2.68
2019-02-09T07:44:56.308Z,3.18
2019-02-09T07:59:59.346Z,3.27
2019-02-09T08:15:01.936Z,3.79
2019-02-09T08:30:09.910Z,4.91
2019-02-09T08:45:27.796Z,4.70
2019-02-09T09:00:34.001Z,5.10
2019-02-09T09:15:44.885Z,5.62
2019-02-09T09:30:47.632Z,5.64
2019-02-09T09:45:51.012Z,4.91
2019-02-09T10:00:53.835Z,5.28
2019-02-09T10:15:57.100Z,5.99
2019-02-09T10:31:00.646Z,6.63
2019-02-09T10:46:06.388Z,6.75
2019-02-09T11:01:11.818Z,7.18
2019-02-09T11:16:14.449Z,9.64
2019-02-09T11:31:19.608Z,9.14
2019-02-09T11:46:22.265Z,8.53
2019-02-09T12:01:25.649Z,7.73
2019-02-09T12:16:29.843Z,7.97
2019-02-09T12:31:34.358Z,7.10
2019-02-09T12:46:38.007Z,8.00
2019-02-09T13:01:40.960Z,7.02
2019-02-09T13:16:43.750Z,5.98
2019-02-09T13:31:47.278Z,6.76
2019-02-09T13:46:50.069Z,6.36
2019-02-09T14:01:54.032Z,4.90
2019-02-09T14:16:58.740Z,3.72
2019-02-09T14:32:01.349Z,3.09
2019-02-09T14:47:04.348Z,2.35
2019-02-09T15:02:08.166Z,1.42
2019-02-09T15:17:10.763Z,1.28
2019-02-09T15:32:15.132Z,0.95
2019-02-09T15:47:17.757Z,0.42
2019-02-09T16:02:20.447Z,0.25
2019-02-09T16:17:23.081Z,0.57
2019-02-09T16:32:25.678Z,0.35
2019-02-09T16:47:29.947Z,0.78
2019-02-09T17:02:32.536Z,1.02
2019-02-09T17:17:35.136Z,1.24
2019-02-09T17:32:39.201Z,1.02
2019-02-09T17:47:42.632Z,0.27
2019-02-09T18:02:46.355Z,0.20
2019-02-09T18:17:49.156Z,-0.01
2019-02-09T18:32:52.785Z,0.04
2019-02-09T18:47:55.539Z,0.87
2019-02-09T19:02:58.975Z,0.93
2019-02-09T19:18:02.570Z,1.15
2019-02-09T19:33:06.133Z,0.72
2019-02-09T19:48:09.200Z,1.13
2019-02-09T20:03:13.608Z,1.50
2019-02-09T20:18:16.461Z,0.88
2019-02-09T20:33:19.058Z,0.26
2019-02-09T20:48:22.529Z,-0.09
2019-02-09T21:03:25.996Z,-0.38
2019-02-09T21:18:28.656Z,-0.54
2019-02-09T21:33:31.321Z,-0.51
2019-02-09T21:48:33.893Z,-0.37
2019-02-09T22:03:36.468Z,-0.28
2019-02-09T22:18:40.676Z,-0.34
2019-02-09T22:33:44.535Z,-0.01
2019-02-09T22:48:47.094Z,-0.37
2019-02-09T23:03:57.201Z,-1.16
2019-02-09T23:18:59.908Z,-1.28
2019-02-09T23:34:03.726Z,-1.21
2019-02-09T23:49:06.329Z,-1.65
